Flight Track Log - Related Links

Times and Time Zones

All times are in EDT time to prevent confusion due to time zone crossing. See the FLG4223 flight status page for this flight to view local times or setup timezone preferences in your user account.

Time Position Orientation Groundspeed Altitude Reporting Facility
EDT Latitude Longitude Course Direction KTS MPH feet Rate Location/Type
Wed 10:45:04 AM 44.4169 -88.0592 101° East 249 287 5,200  Level Chicago Center
Wed 10:46:00 AM 44.3751 -87.8363 121° Southeast  Level FlightAware Approximate
Wed 10:46:06 AM 44.4003 -87.9486 102° East 277 319 8,200  Level Chicago Center
Wed 10:47:00 AM 44.3168 -87.7251 127° Southeast  Level FlightAware Approximate
Wed 10:47:08 AM 44.3689 -87.8314 110° East 322 371 10,300  Level Chicago Center
Wed 10:48:00 AM 44.2575 -87.6149 125° Southeast  Level FlightAware Approximate
Wed 10:48:10 AM 44.3111 -87.7183 126° Southeast 355 409 11,300  Level Chicago Center
Wed 10:49:00 AM 44.2013 -87.5064 129° Southeast  Level FlightAware Approximate
Wed 10:49:12 AM 44.2425 -87.5894 127° Southeast 405 466 12,300  Level Chicago Center
Wed 10:50:14 AM 44.1592 -87.4297 126° Southeast 434 499 13,500 1,065 Climbing Chicago Center
Wed 10:51:16 AM 44.0864 -87.2911 126° Southeast 451 519 14,500 945 Climbing Chicago Center
Wed 10:52:21 AM 44.0117 -87.1494 126° Southeast 454 522 15,500 898 Climbing Minneapolis Center
Wed 10:53:23 AM 43.9350 -87.0069 127° Southeast 459 528 16,400 794 Climbing Minneapolis Center
Wed 10:54:37 AM 43.8428 -86.8300 126° Southeast 471 542 17,300 657 Climbing Minneapolis Center
Wed 10:55:40 AM 43.7475 -86.6544 127° Southeast 477 549 17,900 526 Climbing Minneapolis Center
Wed 10:56:54 AM 43.6661 -86.5047 127° Southeast 484 557 18,500 618 Climbing Minneapolis Center
Wed 10:57:56 AM 43.5681 -86.3225 127° Southeast 492 566 19,300 804 Climbing Minneapolis Center
Wed 10:58:31 AM 43.5197 -86.2328 127° Southeast 490 564 19,800 619 Climbing Chicago Center
Wed 10:59:33 AM 43.4383 -86.0828 127° Southeast 489 563 20,300 484 Climbing Chicago Center
Wed 11:00:35 AM 43.3736 -85.9150 118° Southeast 504 580 20,800 484 Climbing Chicago Center
Wed 11:01:37 AM 43.3403 -85.7283 104° East 499 574 21,300 532 Climbing Chicago Center
Wed 11:02:39 AM 43.3064 -85.5436 104° East 495 570 21,900 581 Climbing Chicago Center
Wed 11:03:41 AM 43.2678 -85.3211 103° East 498 573 22,500 533 Climbing Chicago Center
Wed 11:04:09 AM 43.2503 -85.2356 106° East 485 558 22,700 341 Climbing Cleveland Center
Wed 11:05:09 AM 43.2158 -85.0478 104° East 490 564 23,000 150 Climbing Cleveland Center
Wed 11:06:09 AM 43.1814 -84.8600 104° East 502 578 23,000 -250 Level Cleveland Center
Wed 11:07:09 AM 43.1444 -84.6725 105° East 507 583 22,500 -750 Descending Cleveland Center
Wed 11:08:09 AM 43.1089 -84.4908 105° East 507 583 21,500 -1,000 Descending Cleveland Center
Wed 11:08:51 AM 43.0933 -84.3881 102° East 500 575 20,800 -1,000 Descending Chicago Center
Wed 11:09:09 AM 43.0747 -84.3239 112° Southeast 501 577 20,500 -1,462 Descending Cleveland Center
Wed 11:10:09 AM 43.0408 -84.1428 104° East 501 577 18,900 -2,400 Descending Cleveland Center
Wed 11:11:09 AM 43.0086 -83.9678 104° East 494 568 15,700 -3,459 Descending Cleveland Center
Wed 11:11:34 AM 42.9883 -83.8758 107° East 463 533 14,000 -2,400 Descending Cleveland Center
Wed 11:12:09 AM 42.9661 -83.7781 107° East 486 559 13,300 -1,967 Descending Cleveland Center
Wed 11:12:35 AM 42.8975 -83.7717 176° South 393 452 12,000 -1,300 Descending Cleveland Center
Wed 11:13:09 AM 42.8544 -83.7497 160° South 397 457 12,000 90 Level Cleveland Center
Wed 11:13:42 AM 42.8031 -83.7189 156° South 324 373 12,100 -100 Climbing Cleveland Center
Wed 11:14:09 AM 42.7703 -83.6972 154° Southeast 365 420 11,900 -885 Descending Cleveland Center
Wed 11:14:43 AM 42.7128 -83.6661 158° South 334 384 11,200 -1,000 Descending Cleveland Center
Wed 11:15:09 AM 42.6906 -83.6397 139° Southeast 340 391 10,900 -1,091 Descending Cleveland Center
Wed 11:15:38 AM 42.6589 -83.5789 125° Southeast 352 405 10,200 -1,200 Descending Cleveland Center
Wed 11:16:09 AM 42.6331 -83.5325 127° Southeast 340 391 9,700 -1,180 Descending Cleveland Center
Wed 11:16:39 AM 42.6011 -83.4717 125° Southeast 351 404 9,000 -1,400 Descending Cleveland Center
Wed 11:17:09 AM 42.5750 -83.4283 129° Southeast 340 391 8,300 -1,700 Descending Cleveland Center
Wed 11:17:39 AM 42.5392 -83.3647 127° Southeast 331 381 7,300 -1,600 Descending Cleveland Center
Wed 11:18:09 AM 42.5211 -83.3300 125° Southeast 340 391 6,700 -1,672 Descending Cleveland Center
Wed 11:18:40 AM 42.4806 -83.2803 138° Southeast 290 334 5,600 -1,600 Descending Cleveland Center
Wed 11:19:09 AM 42.4536 -83.2764 174° South 296 341 5,100 -1,180 Descending Cleveland Center
Wed 11:19:41 AM 42.4058 -83.2772 181° South 262 302 4,400 -1,313 Descending Cleveland Center

Login

Don't have an account? Register now (free) for customized features, flight alerts, and more!